createdAt,value
2023-03-20T00:01:57.872Z,14.95
2023-03-20T00:04:25.953Z,15.10
2023-03-20T00:06:54.698Z,15.07
2023-03-20T00:09:22.360Z,15.03
2023-03-20T00:11:51.611Z,14.64
2023-03-20T00:14:22.449Z,14.71
2023-03-20T00:16:51.286Z,14.58
2023-03-20T00:19:20.717Z,14.85
2023-03-20T00:21:48.578Z,14.88
2023-03-20T00:24:18.149Z,14.91
2023-03-20T00:26:47.342Z,14.82
2023-03-20T00:29:21.586Z,14.87
2023-03-20T00:31:49.438Z,14.81
2023-03-20T00:34:19.301Z,14.77
2023-03-20T00:36:47.406Z,14.50
2023-03-20T00:39:14.915Z,14.41
2023-03-20T00:41:49.962Z,14.36
2023-03-20T00:44:24.825Z,14.31
2023-03-20T00:46:55.455Z,14.28
2023-03-20T00:49:26.274Z,14.22
2023-03-20T00:51:53.692Z,14.16
2023-03-20T00:54:21.332Z,14.03
2023-03-20T00:56:56.501Z,14.07
2023-03-20T00:59:27.792Z,13.89
2023-03-20T01:01:56.522Z,14.12
2023-03-20T01:04:24.011Z,14.12
2023-03-20T01:06:52.538Z,14.03
2023-03-20T01:09:19.986Z,13.78
2023-03-20T01:11:47.660Z,13.75
2023-03-20T01:14:17.940Z,13.84
2023-03-20T01:16:45.540Z,13.88
2023-03-20T01:19:14.575Z,13.95
2023-03-20T01:21:42.285Z,13.95
2023-03-20T01:24:10.097Z,13.92
2023-03-20T01:26:40.210Z,13.66
2023-03-20T01:29:19.992Z,13.64
2023-03-20T01:31:47.606Z,13.72
2023-03-20T01:34:16.337Z,13.63
2023-03-20T01:36:47.418Z,13.58
2023-03-20T01:39:15.001Z,13.65
2023-03-20T01:41:42.590Z,13.64
2023-03-20T01:44:22.196Z,13.60
2023-03-20T01:46:50.902Z,13.65
2023-03-20T01:49:55.631Z,13.78
2023-03-20T01:52:23.082Z,13.83
2023-03-20T01:54:50.854Z,13.86
2023-03-20T01:57:21.505Z,13.94
2023-03-20T01:59:53.152Z,14.05
2023-03-20T02:02:23.607Z,13.86
2023-03-20T02:04:56.330Z,13.98
2023-03-20T02:07:24.634Z,13.99
2023-03-20T02:09:52.612Z,14.05
2023-03-20T02:12:21.340Z,13.87
2023-03-20T02:14:52.089Z,14.00
2023-03-20T02:17:20.073Z,13.76
2023-03-20T02:19:59.298Z,13.81
2023-03-20T02:23:12.922Z,13.91
2023-03-20T02:26:16.223Z,13.98
2023-03-20T02:29:38.030Z,13.72
2023-03-20T02:32:50.708Z,14.04
2023-03-20T02:35:33.808Z,13.91
2023-03-20T02:38:16.641Z,13.92
2023-03-20T02:40:48.935Z,13.81
2023-03-20T02:43:25.260Z,13.84
2023-03-20T02:45:56.977Z,13.72
2023-03-20T02:48:40.130Z,13.88
2023-03-20T02:51:17.015Z,13.92
2023-03-20T02:53:54.193Z,13.94
2023-03-20T02:56:30.959Z,13.94
2023-03-20T02:59:06.600Z,14.21
2023-03-20T03:01:39.076Z,14.25
2023-03-20T03:04:11.157Z,14.20
2023-03-20T03:06:41.702Z,14.02
2023-03-20T03:09:17.227Z,14.04
2023-03-20T03:11:50.471Z,13.93
2023-03-20T03:14:23.006Z,14.06
2023-03-20T03:16:53.187Z,14.05
2023-03-20T03:19:24.997Z,14.03
2023-03-20T03:21:52.925Z,14.11
2023-03-20T03:24:39.835Z,14.00
2023-03-20T03:27:14.125Z,13.95
2023-03-20T03:29:42.866Z,13.97
2023-03-20T03:32:24.436Z,13.73
2023-03-20T03:34:51.984Z,13.62
2023-03-20T03:37:28.026Z,13.74
2023-03-20T03:40:06.355Z,13.92
2023-03-20T03:42:38.547Z,13.94
2023-03-20T03:45:12.822Z,13.66
2023-03-20T03:47:46.172Z,13.74
2023-03-20T03:50:17.900Z,13.84
2023-03-20T03:52:47.511Z,13.73
2023-03-20T03:55:22.918Z,13.89
2023-03-20T03:57:54.833Z,13.81
2023-03-20T04:00:26.079Z,13.87
2023-03-20T04:02:55.976Z,14.00
2023-03-20T04:05:25.790Z,13.98
2023-03-20T04:07:56.277Z,13.85
2023-03-20T04:10:25.521Z,13.85
2023-03-20T04:12:52.944Z,13.60
2023-03-20T04:15:21.686Z,13.17
2023-03-20T04:17:49.184Z,13.16
2023-03-20T04:20:17.396Z,13.08
2023-03-20T04:22:44.813Z,13.32
2023-03-20T04:25:18.308Z,13.41
2023-03-20T04:27:47.141Z,13.55
2023-03-20T04:30:15.269Z,13.63
2023-03-20T04:32:42.732Z,13.62
2023-03-20T04:35:10.708Z,13.62
2023-03-20T04:37:38.175Z,13.53
2023-03-20T04:40:06.585Z,13.67
2023-03-20T04:42:34.001Z,13.59
2023-03-20T04:45:02.844Z,13.60
2023-03-20T04:47:30.230Z,13.61
2023-03-20T04:49:57.782Z,13.52
2023-03-20T04:52:25.600Z,13.47
2023-03-20T04:54:53.053Z,13.54
2023-03-20T04:57:20.616Z,13.62
2023-03-20T04:59:48.085Z,13.73
2023-03-20T05:02:17.940Z,13.75
2023-03-20T05:04:45.449Z,13.72
2023-03-20T05:07:12.895Z,13.67
2023-03-20T05:09:40.345Z,13.64
2023-03-20T05:12:08.489Z,13.54
2023-03-20T05:14:36.019Z,13.61
2023-03-20T05:17:03.521Z,13.55
2023-03-20T05:19:32.319Z,13.61
2023-03-20T05:21:59.735Z,13.79
2023-03-20T05:24:29.012Z,13.83
2023-03-20T05:26:56.450Z,13.66
2023-03-20T05:29:24.507Z,13.63
2023-03-20T05:31:51.918Z,14.34
2023-03-20T05:34:19.320Z,14.45
2023-03-20T05:36:48.126Z,14.30
2023-03-20T05:39:15.724Z,14.06
2023-03-20T05:41:45.749Z,13.97
2023-03-20T05:44:13.366Z,13.80
2023-03-20T05:46:41.021Z,13.79
2023-03-20T05:49:08.516Z,13.86
2023-03-20T05:51:36.078Z,13.65
2023-03-20T05:54:05.178Z,13.51
2023-03-20T05:56:32.638Z,13.50
2023-03-20T05:59:00.118Z,12.63
2023-03-20T06:01:27.523Z,12.88
2023-03-20T06:03:54.979Z,12.43
2023-03-20T06:06:22.383Z,12.86
2023-03-20T06:08:49.811Z,11.62
2023-03-20T06:11:18.676Z,11.51
2023-03-20T06:13:46.216Z,11.68
2023-03-20T06:16:13.710Z,11.61
2023-03-20T06:18:41.214Z,11.01
2023-03-20T06:21:09.365Z,10.78
2023-03-20T06:23:36.849Z,11.02
2023-03-20T06:26:04.605Z,11.27
2023-03-20T06:28:33.358Z,10.99
2023-03-20T06:31:01.058Z,10.90
2023-03-20T06:33:28.892Z,10.61
2023-03-20T06:35:56.365Z,10.78
2023-03-20T06:38:23.790Z,10.94
2023-03-20T06:40:51.215Z,10.61
2023-03-20T06:43:19.254Z,10.30
2023-03-20T06:45:48.425Z,10.43
2023-03-20T06:48:21.799Z,10.61
2023-03-20T06:50:49.584Z,10.45
2023-03-20T06:53:17.291Z,10.44
2023-03-20T06:55:48.240Z,10.36
2023-03-20T06:58:15.843Z,10.70
2023-03-20T07:00:43.540Z,10.32
2023-03-20T07:03:12.574Z,10.35
2023-03-20T07:05:40.288Z,10.35
2023-03-20T07:08:08.317Z,10.44
2023-03-20T07:10:36.083Z,10.32
2023-03-20T07:13:03.556Z,10.57
2023-03-20T07:15:31.094Z,10.80
2023-03-20T07:17:58.490Z,10.53
2023-03-20T07:20:27.574Z,10.34
2023-03-20T07:22:55.425Z,10.38
2023-03-20T07:25:35.372Z,10.37
2023-03-20T07:28:07.012Z,11.07
2023-03-20T07:30:34.477Z,11.35
2023-03-20T07:33:01.890Z,11.14
2023-03-20T07:35:30.942Z,10.67
2023-03-20T07:37:58.436Z,10.59
2023-03-20T07:40:25.914Z,10.72
2023-03-20T07:42:53.363Z,10.96
2023-03-20T07:45:20.795Z,11.50
2023-03-20T07:47:48.715Z,11.67
2023-03-20T07:50:17.122Z,10.98
2023-03-20T07:52:48.497Z,11.28
2023-03-20T07:55:18.477Z,11.27
2023-03-20T07:57:46.171Z,11.23
2023-03-20T08:00:15.196Z,11.07
2023-03-20T08:02:42.794Z,11.76
2023-03-20T08:05:10.870Z,12.16
2023-03-20T08:07:38.400Z,12.14
2023-03-20T08:10:08.149Z,11.69
2023-03-20T08:12:35.717Z,12.41
2023-03-20T08:15:03.211Z,11.79
2023-03-20T08:17:30.739Z,11.41
2023-03-20T08:19:58.264Z,11.81
2023-03-20T08:22:25.936Z,11.63
2023-03-20T08:24:53.546Z,13.82
2023-03-20T08:27:22.364Z,14.69
2023-03-20T08:29:49.760Z,14.94
2023-03-20T08:32:17.160Z,14.63
2023-03-20T08:34:44.683Z,14.01
2023-03-20T08:37:12.397Z,14.21
2023-03-20T08:39:40.170Z,13.88
2023-03-20T08:42:08.390Z,13.72
2023-03-20T08:44:37.164Z,14.95
2023-03-20T08:47:05.504Z,14.23
2023-03-20T08:49:32.942Z,13.90
2023-03-20T08:52:00.619Z,13.92
2023-03-20T08:54:28.202Z,14.72
2023-03-20T08:56:55.724Z,14.73
2023-03-20T08:59:23.182Z,14.30
2023-03-20T09:01:51.980Z,14.36
2023-03-20T09:04:19.862Z,13.52
2023-03-20T09:06:47.676Z,13.71
2023-03-20T09:09:16.230Z,14.41
2023-03-20T09:11:43.760Z,14.39
2023-03-20T09:14:11.549Z,14.25
2023-03-20T09:16:39.328Z,14.68
2023-03-20T09:19:08.075Z,14.21
2023-03-20T09:21:35.502Z,13.84
2023-03-20T09:24:03.364Z,13.39
2023-03-20T09:26:31.001Z,14.26
2023-03-20T09:28:58.456Z,14.21
2023-03-20T09:31:25.964Z,14.48
2023-03-20T09:33:53.535Z,14.32
2023-03-20T09:36:22.270Z,14.83
2023-03-20T09:38:49.748Z,14.88
2023-03-20T09:41:21.621Z,14.69
2023-03-20T09:44:06.208Z,14.87
2023-03-20T09:46:49.684Z,15.37
2023-03-20T09:49:28.114Z,14.33
2023-03-20T09:51:59.675Z,13.92
2023-03-20T09:54:32.391Z,13.87
2023-03-20T09:57:04.346Z,13.90
2023-03-20T09:59:35.493Z,13.09
2023-03-20T10:02:09.076Z,13.32
2023-03-20T10:04:37.859Z,13.32
2023-03-20T10:07:06.975Z,13.19
2023-03-20T10:09:34.694Z,13.52
2023-03-20T10:12:18.184Z,13.98
2023-03-20T10:14:58.049Z,13.46
2023-03-20T10:17:39.528Z,13.84
2023-03-20T10:20:14.536Z,13.58
2023-03-20T10:22:48.219Z,13.92
2023-03-20T10:25:24.569Z,14.01
2023-03-20T10:27:57.057Z,12.55
2023-03-20T10:30:34.740Z,12.16
2023-03-20T10:33:16.833Z,12.53
2023-03-20T10:35:48.782Z,12.87
2023-03-20T10:38:33.261Z,12.83
2023-03-20T10:41:00.774Z,13.11
2023-03-20T10:43:32.916Z,13.12
2023-03-20T10:46:05.346Z,13.68
2023-03-20T10:48:38.112Z,14.48
2023-03-20T10:51:07.539Z,14.29
2023-03-20T10:53:42.867Z,14.72
2023-03-20T10:56:17.031Z,14.02
2023-03-20T10:58:48.760Z,13.63
2023-03-20T11:01:16.559Z,13.68
2023-03-20T11:03:44.142Z,14.58
2023-03-20T11:06:20.115Z,14.53
2023-03-20T11:08:51.995Z,13.77
2023-03-20T11:11:24.617Z,13.57
2023-03-20T11:13:52.038Z,14.52
2023-03-20T11:16:23.365Z,14.51
2023-03-20T11:18:53.884Z,14.72
2023-03-20T11:21:24.204Z,15.08
2023-03-20T11:23:53.910Z,15.29
2023-03-20T11:26:33.488Z,15.14
2023-03-20T11:29:01.619Z,14.38
2023-03-20T11:31:35.321Z,14.35
2023-03-20T11:34:12.260Z,15.26
2023-03-20T11:36:41.312Z,15.21
2023-03-20T11:39:14.906Z,14.34
2023-03-20T11:41:47.451Z,14.16
2023-03-20T11:44:28.271Z,14.99
2023-03-20T11:46:57.737Z,14.62
2023-03-20T11:49:27.696Z,15.34
2023-03-20T11:51:58.572Z,15.31
2023-03-20T11:54:28.733Z,14.88
2023-03-20T11:56:58.012Z,14.81
2023-03-20T11:59:30.670Z,14.63
2023-03-20T12:01:59.205Z,14.82
2023-03-20T12:04:30.606Z,14.38
2023-03-20T12:07:02.350Z,14.58
2023-03-20T12:09:43.413Z,14.32
2023-03-20T12:12:20.287Z,14.67
2023-03-20T12:14:58.040Z,13.90
2023-03-20T12:17:43.750Z,14.29
2023-03-20T12:20:27.014Z,13.85
2023-03-20T12:23:00.962Z,14.45
2023-03-20T12:25:36.369Z,15.18
2023-03-20T12:28:06.633Z,15.22
2023-03-20T12:30:49.832Z,14.82
2023-03-20T12:33:22.696Z,14.81
2023-03-20T12:35:54.638Z,15.18
2023-03-20T12:38:28.329Z,14.30
2023-03-20T12:41:05.717Z,14.32
2023-03-20T12:43:45.355Z,14.12
2023-03-20T12:46:24.519Z,13.82
2023-03-20T12:49:06.837Z,13.95
2023-03-20T12:51:47.409Z,13.50
2023-03-20T12:54:32.024Z,13.94
2023-03-20T12:57:09.480Z,14.47
2023-03-20T12:59:51.882Z,14.39
2023-03-20T13:02:31.292Z,13.79
2023-03-20T13:05:10.277Z,13.58
2023-03-20T13:07:51.618Z,13.78
2023-03-20T13:10:22.239Z,13.23
2023-03-20T13:13:05.585Z,13.92
2023-03-20T13:15:45.830Z,14.06
2023-03-20T13:18:20.854Z,13.96
2023-03-20T13:20:52.093Z,14.09
2023-03-20T13:23:24.206Z,13.97
2023-03-20T13:26:04.428Z,14.06
2023-03-20T13:28:40.201Z,14.20
2023-03-20T13:31:21.789Z,14.71
2023-03-20T13:33:57.540Z,14.30
2023-03-20T13:36:48.298Z,14.36
2023-03-20T13:39:21.358Z,14.59
2023-03-20T13:41:50.642Z,14.07
2023-03-20T13:44:22.602Z,13.84
2023-03-20T13:46:53.553Z,13.71
2023-03-20T13:49:26.497Z,13.74
2023-03-20T13:52:00.239Z,13.74
2023-03-20T13:54:48.318Z,13.53
2023-03-20T13:57:29.110Z,13.32
2023-03-20T14:00:17.969Z,13.72
2023-03-20T14:03:03.163Z,12.97
2023-03-20T14:05:37.596Z,13.14
2023-03-20T14:08:37.795Z,13.41
2023-03-20T14:11:15.272Z,13.50
2023-03-20T14:13:48.843Z,13.44
2023-03-20T14:16:20.786Z,13.71
2023-03-20T14:18:50.039Z,14.33
2023-03-20T14:21:21.681Z,14.58
2023-03-20T14:23:51.447Z,14.02
2023-03-20T14:26:22.857Z,13.72
2023-03-20T14:28:56.079Z,14.21
2023-03-20T14:31:30.496Z,13.79
2023-03-20T14:34:01.500Z,13.66
2023-03-20T14:36:41.482Z,13.83
2023-03-20T14:39:20.848Z,12.71
2023-03-20T14:42:01.577Z,13.08
2023-03-20T14:44:39.913Z,13.45
2023-03-20T14:47:23.411Z,13.38
2023-03-20T14:49:54.447Z,13.56
2023-03-20T14:52:46.292Z,12.79
2023-03-20T14:55:31.463Z,12.81
2023-03-20T14:58:03.272Z,13.59
2023-03-20T15:00:35.845Z,13.93
2023-03-20T15:03:09.960Z,13.09
2023-03-20T15:05:39.780Z,12.98
2023-03-20T15:08:11.335Z,13.21
2023-03-20T15:10:46.440Z,13.36
2023-03-20T15:13:15.867Z,13.09
2023-03-20T15:15:54.936Z,13.31
2023-03-20T15:18:25.981Z,14.16
2023-03-20T15:20:54.935Z,14.21
2023-03-20T15:23:22.393Z,14.30
2023-03-20T15:25:51.689Z,14.12
2023-03-20T15:28:21.715Z,13.84
2023-03-20T15:30:51.153Z,13.66
2023-03-20T15:33:27.281Z,13.25
2023-03-20T15:35:56.718Z,13.81
2023-03-20T15:38:29.320Z,14.40
2023-03-20T15:40:57.159Z,13.87
2023-03-20T15:43:27.087Z,13.76
2023-03-20T15:46:14.170Z,13.61
2023-03-20T15:48:48.318Z,13.93
2023-03-20T15:51:18.150Z,14.29
2023-03-20T15:53:48.334Z,14.80
2023-03-20T15:56:19.215Z,13.81
2023-03-20T15:58:49.819Z,13.10
2023-03-20T16:01:19.985Z,13.54
2023-03-20T16:03:48.442Z,13.65
2023-03-20T16:06:21.051Z,13.08
2023-03-20T16:08:58.169Z,13.10
2023-03-20T16:11:25.732Z,13.11
2023-03-20T16:13:55.976Z,13.81
2023-03-20T16:16:25.245Z,14.09
2023-03-20T16:18:52.769Z,14.24
2023-03-20T16:21:25.431Z,13.92
2023-03-20T16:23:55.774Z,13.62
2023-03-20T16:26:25.956Z,13.39
2023-03-20T16:28:56.027Z,14.07
2023-03-20T16:31:28.311Z,13.31
2023-03-20T16:33:59.874Z,13.60
2023-03-20T16:36:30.433Z,14.25
2023-03-20T16:38:59.781Z,14.28
2023-03-20T16:41:31.711Z,13.92
2023-03-20T16:43:59.542Z,13.90
2023-03-20T16:46:29.006Z,13.78
2023-03-20T16:48:58.934Z,13.49
2023-03-20T16:51:28.060Z,13.31
2023-03-20T16:53:59.093Z,13.33
2023-03-20T16:56:29.988Z,13.09
2023-03-20T16:58:57.983Z,13.53
2023-03-20T17:01:29.667Z,13.97
2023-03-20T17:03:59.070Z,14.22
2023-03-20T17:06:35.673Z,14.00
2023-03-20T17:09:18.707Z,13.80
2023-03-20T17:11:50.203Z,14.16
2023-03-20T17:14:18.365Z,13.89
2023-03-20T17:16:45.789Z,14.27
2023-03-20T17:19:16.775Z,14.36
2023-03-20T17:21:44.396Z,14.31
2023-03-20T17:24:14.430Z,14.29
2023-03-20T17:26:44.992Z,14.45
2023-03-20T17:29:13.046Z,14.51
2023-03-20T17:31:40.709Z,14.46
2023-03-20T17:34:08.214Z,14.54
2023-03-20T17:36:36.300Z,14.45
2023-03-20T17:39:04.147Z,13.87
2023-03-20T17:41:32.896Z,13.97
2023-03-20T17:44:00.589Z,14.28
2023-03-20T17:46:30.507Z,14.15
2023-03-20T17:49:00.386Z,14.15
2023-03-20T17:51:27.820Z,13.77
2023-03-20T17:53:57.760Z,14.20
2023-03-20T17:56:29.909Z,14.25
2023-03-20T17:58:58.963Z,14.11
2023-03-20T18:01:27.211Z,13.82
2023-03-20T18:03:55.054Z,13.45
2023-03-20T18:06:27.017Z,13.60
2023-03-20T18:08:55.027Z,13.76
2023-03-20T18:11:22.549Z,12.98
2023-03-20T18:13:50.159Z,13.49
2023-03-20T18:16:21.572Z,14.05
2023-03-20T18:18:49.718Z,14.37
2023-03-20T18:21:17.632Z,14.68
2023-03-20T18:23:45.896Z,14.91
2023-03-20T18:26:22.290Z,14.75
2023-03-20T18:28:51.264Z,14.12
2023-03-20T18:31:20.958Z,14.31
2023-03-20T18:33:49.266Z,14.01
2023-03-20T18:36:18.580Z,14.00
2023-03-20T18:38:46.245Z,13.98
2023-03-20T18:41:14.326Z,13.99
2023-03-20T18:43:42.115Z,14.20
2023-03-20T18:46:14.092Z,13.89
2023-03-20T18:48:43.486Z,13.89
2023-03-20T18:51:10.976Z,14.22
2023-03-20T18:53:40.631Z,13.89
2023-03-20T18:56:12.740Z,14.32
2023-03-20T18:58:40.400Z,14.24
2023-03-20T19:01:08.057Z,14.32
2023-03-20T19:03:39.270Z,14.27
2023-03-20T19:06:13.703Z,14.25
2023-03-20T19:08:41.145Z,14.12
2023-03-20T19:11:14.851Z,13.99
2023-03-20T19:13:44.979Z,13.92
2023-03-20T19:16:21.904Z,14.15
2023-03-20T19:18:51.153Z,13.74
2023-03-20T19:21:25.795Z,14.11
2023-03-20T19:23:53.978Z,14.27
2023-03-20T19:26:25.881Z,14.32
2023-03-20T19:28:54.718Z,14.52
2023-03-20T19:31:22.944Z,14.26
2023-03-20T19:33:50.893Z,14.49
2023-03-20T19:36:27.175Z,14.38
2023-03-20T19:38:55.782Z,14.52
2023-03-20T19:41:23.392Z,14.52
2023-03-20T19:43:55.379Z,14.46
2023-03-20T19:46:41.562Z,14.21
2023-03-20T19:49:18.384Z,14.41
2023-03-20T19:51:48.790Z,14.12
2023-03-20T19:54:16.317Z,14.12
2023-03-20T19:56:43.807Z,14.13
2023-03-20T19:59:11.686Z,13.88
2023-03-20T20:01:39.129Z,13.79
2023-03-20T20:04:06.736Z,14.18
2023-03-20T20:06:34.138Z,13.89
2023-03-20T20:09:03.529Z,14.13
2023-03-20T20:11:30.943Z,13.93
2023-03-20T20:14:08.527Z,13.68
2023-03-20T20:16:37.744Z,14.20
2023-03-20T20:19:05.843Z,13.92
2023-03-20T20:24:22.680Z,14.18
2023-03-20T20:26:55.293Z,13.70
2023-03-20T20:29:28.082Z,13.64
2023-03-20T20:31:55.566Z,13.82
2023-03-20T20:40:00.213Z,14.26
2023-03-20T20:42:27.759Z,12.72
2023-03-20T20:44:55.169Z,12.16
2023-03-20T20:47:22.661Z,12.97
2023-03-20T20:49:50.074Z,13.22
2023-03-20T20:52:17.715Z,13.07
2023-03-20T20:54:45.205Z,12.81
2023-03-20T20:57:14.372Z,13.15
2023-03-20T20:59:42.058Z,13.23
2023-03-20T21:02:11.949Z,13.14
2023-03-20T21:04:40.485Z,13.12
2023-03-20T21:07:10.946Z,13.28
2023-03-20T21:09:38.982Z,13.65
2023-03-20T21:12:08.052Z,13.79
2023-03-20T21:14:37.131Z,13.66
2023-03-20T21:17:05.911Z,13.28
2023-03-20T21:19:35.470Z,13.16
2023-03-20T21:22:02.975Z,13.60
2023-03-20T21:24:33.956Z,13.58
2023-03-20T21:27:02.275Z,13.66
2023-03-20T21:29:29.699Z,13.61
2023-03-20T21:31:58.515Z,13.37
2023-03-20T21:34:26.142Z,13.62
2023-03-20T21:36:53.672Z,13.36
2023-03-20T21:39:21.550Z,12.98
2023-03-20T21:41:49.066Z,12.84
2023-03-20T21:44:24.630Z,12.74
2023-03-20T21:58:56.453Z,13.61
2023-03-20T22:07:32.018Z,13.43
2023-03-20T22:10:10.935Z,13.29
2023-03-20T22:18:31.007Z,13.27
2023-03-20T22:24:21.185Z,13.46
2023-03-20T22:29:48.334Z,13.49
2023-03-20T22:46:05.532Z,13.08
2023-03-20T22:48:36.136Z,13.43
2023-03-20T22:51:03.942Z,13.39
2023-03-20T22:53:33.131Z,13.34
2023-03-20T22:56:01.273Z,13.15
2023-03-20T22:58:28.740Z,13.18
2023-03-20T23:00:56.577Z,13.35
2023-03-20T23:03:42.447Z,13.25
2023-03-20T23:06:15.376Z,13.16
2023-03-20T23:08:50.664Z,13.34
2023-03-20T23:11:20.444Z,13.39
2023-03-20T23:13:47.918Z,13.10
2023-03-20T23:16:15.595Z,12.91
2023-03-20T23:18:43.726Z,12.94
2023-03-20T23:21:11.620Z,12.95
2023-03-20T23:23:39.431Z,12.93
2023-03-20T23:26:10.656Z,12.94
2023-03-20T23:28:39.166Z,13.23
2023-03-20T23:31:10.658Z,13.41
2023-03-20T23:33:38.977Z,13.12
2023-03-20T23:36:16.530Z,12.68
2023-03-20T23:38:52.404Z,12.45
2023-03-20T23:41:36.621Z,12.25
2023-03-20T23:44:08.712Z,12.46
2023-03-20T23:46:36.192Z,12.22
2023-03-20T23:49:03.817Z,12.16
2023-03-20T23:51:31.330Z,12.32
2023-03-20T23:53:58.713Z,12.52
2023-03-20T23:56:27.461Z,12.20
2023-03-20T23:59:01.163Z,11.95
